Time;durP1;ratioP1;P1;durP2;ratioP2;P2;SDS_P1;SDS_P2;PMS_P1;PMS_P2;Temp;Humidity;BMP_temperature;BMP_pressure;BME280_temperature;BME280_humidity;BME280_pressure;Samples;Min_cycle;Max_cycle;Signal;HPM_P1;HPM_P2
2024/02/14 00:00:13;;;;;;;18.77;6.53;;;;;;;2.45;76.90;99043.84;4926144;28;104325;-63
2024/02/14 00:02:49;;;;;;;17.60;6.47;;;;;;;2.60;76.67;99043.69;4930309;28;102893;-63
2024/02/14 00:05:17;;;;;;;14.90;6.38;;;;;;;2.70;76.45;99041.25;4929159;28;103380;-63
2024/02/14 00:07:45;;;;;;;17.15;6.90;;;;;;;2.53;76.28;99042.44;4928471;28;103210;-63
2024/02/14 00:10:14;;;;;;;15.50;6.38;;;;;;;2.63;76.28;99043.47;4924578;28;102899;-63
2024/02/14 00:12:41;;;;;;;12.93;5.93;;;;;;;2.73;75.45;99044.47;4927210;28;102815;-62
2024/02/14 00:15:10;;;;;;;13.38;5.13;;;;;;;2.82;75.05;99043.81;4931268;28;103932;-62
2024/02/14 00:18:09;;;;;;;14.27;6.05;;;;;;;2.80;74.89;99045.72;4928689;28;102993;-63
2024/02/14 00:20:37;;;;;;;13.63;5.50;;;;;;;2.79;74.88;99046.66;4934597;28;104046;-62
2024/02/14 00:23:05;;;;;;;13.35;6.43;;;;;;;2.72;75.26;99048.03;4931143;28;103792;-63
2024/02/14 00:25:33;;;;;;;13.35;6.38;;;;;;;2.54;75.61;99054.59;4931292;28;104113;-63
2024/02/14 00:28:01;;;;;;;13.93;6.28;;;;;;;2.45;76.99;99056.06;4932993;28;103309;-63
2024/02/14 00:30:29;;;;;;;14.38;6.72;;;;;;;2.46;77.03;99058.59;4928456;28;102726;-63
2024/02/14 00:32:58;;;;;;;13.45;6.40;;;;;;;2.20;78.11;99051.72;4930191;28;102943;-63
2024/02/14 00:35:27;;;;;;;16.25;6.22;;;;;;;2.43;77.81;99048.31;4928826;28;103940;-63
2024/02/14 00:37:56;;;;;;;17.45;6.93;;;;;;;2.29;77.71;99061.53;4930154;28;103244;-63
2024/02/14 00:40:24;;;;;;;16.08;6.10;;;;;;;2.37;78.18;99055.75;4931980;28;102769;-63
2024/02/14 00:42:52;;;;;;;15.63;6.20;;;;;;;2.64;77.86;99055.59;4934619;28;102690;-63
2024/02/14 00:45:20;;;;;;;12.90;5.78;;;;;;;2.81;76.52;99050.00;4926369;28;103442;-63
2024/02/14 00:47:48;;;;;;;12.05;4.93;;;;;;;2.99;76.01;99049.63;4930044;28;103388;-63
2024/02/14 00:50:16;;;;;;;11.45;5.13;;;;;;;3.12;76.12;99044.34;4930255;28;103195;-63
2024/02/14 00:52:45;;;;;;;14.70;6.20;;;;;;;3.15;75.58;99049.34;4927085;28;106183;-63
2024/02/14 00:55:14;;;;;;;12.32;5.43;;;;;;;3.24;75.44;99046.06;4927473;28;103213;-63
2024/02/14 00:57:44;;;;;;;14.52;5.45;;;;;;;3.32;74.92;99045.50;4929432;28;103321;-63
2024/02/14 01:00:13;;;;;;;15.43;6.63;;;;;;;3.35;75.33;99052.28;4928438;28;102768;-63
2024/02/14 01:02:41;;;;;;;13.95;5.38;;;;;;;3.43;75.03;99045.53;4931297;28;104686;-63
2024/02/14 01:05:09;;;;;;;10.18;5.10;;;;;;;3.47;75.05;99046.97;4934045;28;103251;-63
2024/02/14 01:07:37;;;;;;;12.98;6.03;;;;;;;3.51;74.90;99051.97;4928212;28;103213;-63
2024/02/14 01:10:07;;;;;;;11.88;5.15;;;;;;;3.58;74.85;99051.41;4924885;28;102956;-63
2024/02/14 01:12:35;;;;;;;10.40;5.15;;;;;;;3.67;75.26;99054.28;4926257;28;102817;-63
2024/02/14 01:15:04;;;;;;;16.65;7.25;;;;;;;3.70;75.41;99054.88;4928762;28;104288;-63
2024/02/14 01:17:35;;;;;;;12.27;6.35;;;;;;;3.51;75.91;99054.59;4925325;28;105065;-63
2024/02/14 01:20:04;;;;;;;14.18;6.65;;;;;;;3.34;76.92;99059.31;4927960;28;102791;-63
2024/02/14 01:22:32;;;;;;;19.75;7.13;;;;;;;3.14;78.21;99061.63;4928884;28;103939;-63
2024/02/14 01:25:00;;;;;;;9.85;5.90;;;;;;;3.33;78.23;99057.63;4929025;28;104218;-63
2024/02/14 01:27:29;;;;;;;14.90;6.60;;;;;;;3.42;77.77;99050.88;4925501;28;103065;-63
2024/02/14 01:29:58;;;;;;;14.10;6.00;;;;;;;3.54;76.89;99049.97;4925151;28;102710;-63
2024/02/14 01:32:27;;;;;;;10.13;4.70;;;;;;;3.66;76.83;99042.97;4927892;28;102956;-63
2024/02/14 01:34:56;;;;;;;9.82;4.90;;;;;;;3.72;76.38;99037.28;4928433;28;103266;-63
2024/02/14 01:37:24;;;;;;;10.10;4.43;;;;;;;3.79;76.64;99037.66;4924814;28;103219;-63
2024/02/14 01:39:52;;;;;;;11.55;5.15;;;;;;;3.88;75.97;99041.34;4925569;28;103062;-63
2024/02/14 01:42:20;;;;;;;11.43;5.32;;;;;;;3.79;76.15;99035.84;4924782;28;103005;-63
2024/02/14 01:44:50;;;;;;;11.07;5.40;;;;;;;3.78;76.49;99035.97;4918352;28;103484;-63
2024/02/14 01:47:19;;;;;;;12.40;5.43;;;;;;;3.90;75.80;99028.97;4927626;28;103366;-63
2024/02/14 01:49:48;;;;;;;14.88;5.78;;;;;;;3.91;75.90;99030.63;4925132;28;102675;-63
2024/02/14 01:52:16;;;;;;;10.05;4.78;;;;;;;3.92;75.78;99032.31;4927899;28;102676;-63
2024/02/14 01:54:44;;;;;;;13.02;5.40;;;;;;;3.97;76.36;99030.19;4926229;28;104133;-63
2024/02/14 01:57:12;;;;;;;11.90;4.70;;;;;;;3.93;75.90;99028.72;4927804;28;103315;-63
2024/02/14 01:59:40;;;;;;;11.45;4.90;;;;;;;3.93;75.44;99028.72;4929294;28;102685;-63
2024/02/14 02:02:10;;;;;;;12.40;4.88;;;;;;;3.90;75.66;99032.41;4928762;28;102603;-62
2024/02/14 02:04:38;;;;;;;13.30;4.70;;;;;;;3.86;76.10;99038.00;4927351;28;103225;-63
2024/02/14 02:07:07;;;;;;;13.20;5.38;;;;;;;3.85;76.51;99041.56;4931061;28;103259;-63
2024/02/14 02:09:35;;;;;;;11.73;4.50;;;;;;;3.81;76.25;99030.50;4929542;28;102685;-63
2024/02/14 02:12:05;;;;;;;11.13;3.90;;;;;;;4.00;75.76;99023.88;4935007;28;102677;-62
2024/02/14 02:14:33;;;;;;;13.52;4.20;;;;;;;4.09;75.85;99021.34;4929391;28;103058;-63
2024/02/14 02:17:01;;;;;;;10.30;4.03;;;;;;;4.11;75.37;99024.69;4926344;28;103003;-63
2024/02/14 02:19:32;;;;;;;8.90;3.50;;;;;;;4.22;75.51;99029.09;4934701;28;102666;-63
2024/02/14 02:22:00;;;;;;;5.88;3.20;;;;;;;4.30;75.19;99024.09;4927714;28;103911;-62
2024/02/14 02:24:30;;;;;;;9.10;3.72;;;;;;;4.35;75.38;99023.75;4930413;28;103375;-63
2024/02/14 02:26:58;;;;;;;9.82;3.05;;;;;;;4.42;75.05;99019.66;4931186;28;103373;-63
2024/02/14 02:29:26;;;;;;;9.32;4.00;;;;;;;4.46;75.29;99021.09;4928508;28;102647;-63
2024/02/14 02:31:54;;;;;;;10.80;3.75;;;;;;;4.42;74.93;99017.03;4929060;28;104694;-63
2024/02/14 02:34:22;;;;;;;11.75;3.78;;;;;;;4.43;74.57;99021.34;4922766;28;103751;-63
2024/02/14 02:36:51;;;;;;;7.72;3.40;;;;;;;4.56;74.64;99015.13;4927169;28;103401;-63
2024/02/14 02:39:19;;;;;;;8.18;3.08;;;;;;;4.57;74.24;99022.03;4928323;28;102888;-63
2024/02/14 02:41:49;;;;;;;7.70;3.10;;;;;;;4.55;74.54;99008.22;4924424;28;102659;-63
2024/02/14 02:44:18;;;;;;;6.30;2.78;;;;;;;4.61;74.06;99002.47;4928808;28;103285;-62
2024/02/14 02:46:46;;;;;;;6.43;2.80;;;;;;;4.65;74.26;99009.13;4931551;28;103483;-62
2024/02/14 02:49:14;;;;;;;10.68;3.75;;;;;;;4.56;74.38;99004.63;4925823;28;102899;-63
2024/02/14 02:51:42;;;;;;;12.18;3.78;;;;;;;4.65;74.51;98999.47;4927672;28;103994;-63
2024/02/14 02:54:11;;;;;;;8.57;3.60;;;;;;;4.65;74.33;98998.63;4928655;28;103319;-63
2024/02/14 02:56:40;;;;;;;9.45;3.55;;;;;;;4.39;74.66;99003.34;4929836;28;103286;-63
2024/02/14 02:59:10;;;;;;;11.45;4.00;;;;;;;4.38;75.51;98996.44;4925672;28;102758;-63
2024/02/14 03:01:38;;;;;;;10.13;3.50;;;;;;;4.44;75.50;98988.91;4926806;28;102943;-63
2024/02/14 03:04:06;;;;;;;8.48;4.05;;;;;;;4.28;75.28;98985.81;4923040;28;104077;-63
2024/02/14 03:06:35;;;;;;;8.65;3.72;;;;;;;4.27;75.81;98985.00;4929812;28;102987;-64
2024/02/14 03:09:03;;;;;;;11.65;3.63;;;;;;;4.36;75.09;98975.56;4933438;28;102714;-63
2024/02/14 03:11:31;;;;;;;9.70;3.22;;;;;;;4.53;74.58;98989.13;4930959;28;104102;-64
2024/02/14 03:13:59;;;;;;;8.98;3.38;;;;;;;4.51;74.41;98986.63;4930940;28;103392;-63
2024/02/14 03:16:29;;;;;;;12.32;4.00;;;;;;;4.44;74.66;98986.28;4928832;28;103286;-63
2024/02/14 03:18:58;;;;;;;11.10;4.07;;;;;;;4.49;74.27;98988.53;4929387;28;102708;-63
2024/02/14 03:21:27;;;;;;;11.35;4.38;;;;;;;4.43;74.25;98995.13;4924979;28;104111;-63
2024/02/14 03:23:55;;;;;;;12.07;4.25;;;;;;;4.38;74.33;98997.25;4925837;28;103251;-63
2024/02/14 03:26:23;;;;;;;15.65;5.10;;;;;;;4.08;74.63;98985.59;4932897;28;103210;-63
2024/02/14 03:28:52;;;;;;;15.07;5.22;;;;;;;3.97;75.52;98989.06;4923800;28;103140;-63
2024/02/14 03:31:20;;;;;;;12.55;5.20;;;;;;;4.01;75.29;98994.91;4928741;28;102677;-63
2024/02/14 03:33:49;;;;;;;9.80;4.80;;;;;;;4.00;74.71;99000.28;4926368;28;103472;-63
2024/02/14 03:36:18;;;;;;;11.15;4.28;;;;;;;4.02;75.16;99000.97;4925789;28;103510;-63
2024/02/14 03:38:47;;;;;;;13.30;4.43;;;;;;;4.06;74.93;99010.25;4925283;28;102655;-63
2024/02/14 03:41:15;;;;;;;11.68;5.07;;;;;;;3.95;75.14;99013.72;4930744;28;104291;-63
2024/02/14 03:43:43;;;;;;;11.38;4.80;;;;;;;3.60;76.41;99014.63;4930743;28;104299;-63
2024/02/14 03:46:12;;;;;;;12.30;4.68;;;;;;;3.52;77.59;99019.59;4922677;28;103271;-63
2024/02/14 03:48:41;;;;;;;12.60;5.63;;;;;;;3.59;76.71;99021.66;4930869;28;102734;-62
2024/02/14 03:51:11;;;;;;;12.90;4.68;;;;;;;3.72;76.85;99024.19;4932183;28;103309;-63
2024/02/14 03:53:42;;;;;;;13.50;5.43;;;;;;;3.67;76.83;99028.94;4927098;28;103298;-63
2024/02/14 03:56:09;;;;;;;11.57;3.67;;;;;;;3.88;76.61;99028.22;4925014;28;103207;-62
2024/02/14 03:58:38;;;;;;;11.32;5.00;;;;;;;3.98;75.52;99029.19;4928454;28;102933;-63
2024/02/14 04:01:06;;;;;;;9.05;3.80;;;;;;;4.09;75.29;99026.59;4946246;28;102671;-63
2024/02/14 04:03:34;;;;;;;8.98;3.92;;;;;;;4.18;75.22;99026.81;4928847;28;104196;-63
2024/02/14 04:06:02;;;;;;;12.40;4.93;;;;;;;4.03;75.32;99027.06;4922826;28;106119;-63
2024/02/14 04:08:33;;;;;;;8.73;4.35;;;;;;;4.10;74.85;99022.19;4929370;28;102747;-63
2024/02/14 04:11:01;;;;;;;8.88;3.92;;;;;;;4.22;74.63;99017.75;4931582;28;102753;-63
2024/02/14 04:13:29;;;;;;;14.50;4.63;;;;;;;4.00;75.54;99018.63;4924855;28;103272;-63
2024/02/14 04:15:57;;;;;;;13.57;4.20;;;;;;;4.00;76.05;99014.19;4929475;28;103270;-64
2024/02/14 04:18:25;;;;;;;10.13;4.05;;;;;;;4.25;75.02;99017.53;4928937;28;102685;-63
2024/02/14 04:20:53;;;;;;;12.63;3.97;;;;;;;4.34;74.65;99021.22;4931726;28;103099;-63
2024/02/14 04:23:22;;;;;;;9.43;3.95;;;;;;;4.31;74.28;99027.56;4929706;28;104464;-63
2024/02/14 04:25:51;;;;;;;8.77;3.88;;;;;;;4.28;74.98;99019.91;4928640;28;103227;-63
2024/02/14 04:28:19;;;;;;;11.07;4.35;;;;;;;4.22;74.25;99034.34;4923528;28;104120;-64
2024/02/14 04:30:48;;;;;;;12.48;4.03;;;;;;;4.23;74.72;99029.94;4932239;28;103815;-63
2024/02/14 04:33:17;;;;;;;9.52;3.22;;;;;;;4.38;74.13;99028.72;4928910;28;103977;-63
2024/02/14 04:35:45;;;;;;;12.60;4.28;;;;;;;4.36;74.11;99035.06;4922485;28;104410;-63
2024/02/14 04:38:14;;;;;;;11.18;3.17;;;;;;;4.44;73.84;99032.66;4928713;28;104013;-63
2024/02/14 04:40:42;;;;;;;9.80;4.43;;;;;;;4.41;73.90;99036.34;4928051;28;103019;-63
2024/02/14 04:43:12;;;;;;;8.15;3.50;;;;;;;4.42;74.25;99042.44;4929418;28;103347;-64
2024/02/14 04:45:40;;;;;;;10.02;3.33;;;;;;;4.53;73.96;99038.97;4926360;28;103327;-63
2024/02/14 04:48:08;;;;;;;8.88;3.10;;;;;;;4.59;73.31;99041.13;4928717;28;102776;-64
2024/02/14 04:50:37;;;;;;;7.13;2.80;;;;;;;4.69;73.00;99035.97;4930477;28;102820;-64
2024/02/14 04:53:05;;;;;;;10.35;2.97;;;;;;;4.74;72.85;99033.81;4924110;28;103271;-64
2024/02/14 04:55:33;;;;;;;6.85;2.60;;;;;;;4.78;72.35;99043.94;4929358;28;103182;-64
2024/02/14 04:58:01;;;;;;;9.43;2.88;;;;;;;4.86;72.35;99039.88;4930393;28;102683;-63
2024/02/14 05:00:31;;;;;;;9.85;2.95;;;;;;;4.83;72.27;99030.44;4926594;28;103842;-62
2024/02/14 05:02:59;;;;;;;6.18;2.55;;;;;;;4.89;72.46;99047.50;4932122;28;104014;-62
2024/02/14 05:05:28;;;;;;;7.90;3.33;;;;;;;4.95;72.11;99036.50;4923866;28;104257;-61
2024/02/14 05:07:56;;;;;;;7.80;2.78;;;;;;;4.97;72.66;99039.84;4925566;28;103767;-62
2024/02/14 05:10:24;;;;;;;7.65;2.40;;;;;;;5.02;72.58;99042.06;4905269;28;102844;-62
2024/02/14 05:12:52;;;;;;;9.07;3.50;;;;;;;4.96;72.25;99046.03;4920827;28;103424;-62
2024/02/14 05:15:20;;;;;;;5.35;2.42;;;;;;;4.96;72.40;99043.41;4918071;28;103266;-62
2024/02/14 05:17:50;;;;;;;7.60;2.50;;;;;;;5.05;72.14;99045.31;4919875;28;103015;-62
2024/02/14 05:20:19;;;;;;;6.57;2.38;;;;;;;5.06;72.65;99044.34;4917872;28;102694;-62
2024/02/14 05:22:47;;;;;;;9.27;3.65;;;;;;;4.97;73.01;99040.66;4921417;28;103314;-62
2024/02/14 05:25:15;;;;;;;11.52;3.90;;;;;;;4.93;72.65;99028.75;4914023;28;103185;-62
2024/02/14 05:27:46;;;;;;;7.78;3.53;;;;;;;4.94;72.31;99040.09;4927863;28;102768;-62
2024/02/14 05:30:15;;;;;;;10.30;3.60;;;;;;;5.00;71.94;99044.84;4916582;28;103337;-62
2024/02/14 05:32:43;;;;;;;12.00;4.25;;;;;;;4.94;71.66;99050.59;4922257;28;103919;-62
2024/02/14 05:35:13;;;;;;;11.35;4.60;;;;;;;4.97;71.96;99040.66;4913063;28;103574;-62
2024/02/14 05:37:41;;;;;;;10.85;3.80;;;;;;;5.05;71.82;99036.59;4919420;28;103032;-62
2024/02/14 05:40:09;;;;;;;14.02;3.83;;;;;;;5.03;71.65;99041.13;4918050;28;102751;-62
2024/02/14 05:42:37;;;;;;;10.02;3.50;;;;;;;5.05;71.69;99042.66;4922568;28;103038;-62
2024/02/14 05:45:09;;;;;;;14.50;3.80;;;;;;;4.96;71.55;99033.75;4916286;28;102968;-62
2024/02/14 05:47:37;;;;;;;9.05;3.80;;;;;;;4.96;71.29;99035.53;4926629;28;104487;-62
2024/02/14 05:50:08;;;;;;;8.38;3.03;;;;;;;5.08;71.12;99042.44;4915923;28;103153;-62
2024/02/14 05:52:39;;;;;;;10.95;3.75;;;;;;;5.11;71.27;99041.34;4922875;28;104095;-62
2024/02/14 05:55:08;;;;;;;11.60;3.63;;;;;;;5.11;70.91;99036.13;4915300;28;104470;-62
2024/02/14 05:57:37;;;;;;;10.05;4.22;;;;;;;5.01;71.06;99033.38;4922331;28;104197;-62
2024/02/14 06:00:09;;;;;;;10.27;4.32;;;;;;;4.95;71.23;99036.50;4922623;28;102692;-62
2024/02/14 06:02:39;;;;;;;12.68;4.65;;;;;;;4.90;71.17;99034.25;4922597;28;104130;-62
2024/02/14 06:05:09;;;;;;;11.05;5.13;;;;;;;4.83;71.29;99033.06;4922076;28;103209;-62
2024/02/14 06:07:39;;;;;;;12.93;4.03;;;;;;;4.96;71.08;99025.88;4912569;28;103847;-62
2024/02/14 06:10:09;;;;;;;12.55;4.72;;;;;;;4.80;71.16;99031.53;4922324;28;103061;-62
2024/02/14 06:12:39;;;;;;;11.40;4.85;;;;;;;4.84;70.99;99031.28;4919409;28;103489;-62
2024/02/14 06:15:08;;;;;;;11.70;5.00;;;;;;;4.81;71.16;99030.56;4924499;28;103185;-62
2024/02/14 06:17:36;;;;;;;13.43;5.13;;;;;;;4.75;71.03;99028.44;4921004;28;102657;-62
2024/02/14 06:20:07;;;;;;;11.02;4.65;;;;;;;4.76;71.20;99040.59;4919465;28;104684;-62
2024/02/14 06:22:36;;;;;;;8.43;3.85;;;;;;;4.72;71.16;99036.56;4920797;28;104179;-62
2024/02/14 06:25:18;;;;;;;11.98;4.13;;;;;;;4.76;70.91;99051.09;4920739;28;103886;-63
2024/02/14 06:27:46;;;;;;;13.32;4.38;;;;;;;4.67;71.07;99043.97;4923954;28;102765;-63
2024/02/14 06:30:14;;;;;;;9.95;4.25;;;;;;;4.65;71.63;99051.97;4905208;28;102853;-63
2024/02/14 06:32:42;;;;;;;12.50;3.85;;;;;;;4.69;70.94;99052.56;4909497;28;103411;-62
2024/02/14 06:35:11;;;;;;;9.68;3.65;;;;;;;4.69;70.93;99055.19;4918605;28;103295;-62
2024/02/14 06:37:42;;;;;;;8.10;3.28;;;;;;;4.84;71.01;99054.91;4920095;28;102741;-62
2024/02/14 06:40:32;;;;;;;10.27;4.25;;;;;;;4.73;70.84;99067.09;4916937;28;104243;-63
2024/02/14 06:43:00;;;;;;;10.25;4.30;;;;;;;4.79;70.76;99068.41;4923661;28;103265;-63
2024/02/14 06:45:29;;;;;;;10.15;3.85;;;;;;;4.80;70.79;99059.56;4918920;28;104508;-63
2024/02/14 06:47:58;;;;;;;12.48;4.63;;;;;;;4.77;71.03;99060.66;4919755;28;103163;-63
2024/02/14 06:50:27;;;;;;;21.52;9.15;;;;;;;4.85;70.87;99067.06;4918252;28;104220;-63
2024/02/14 06:52:59;;;;;;;11.68;4.70;;;;;;;4.87;70.99;99054.66;4923161;28;103961;-63
2024/02/14 06:55:28;;;;;;;12.40;4.35;;;;;;;4.87;70.92;99059.91;4923511;28;103200;-63
2024/02/14 06:57:59;;;;;;;10.10;3.78;;;;;;;4.88;70.84;99061.59;4930387;28;102601;-63
2024/02/14 07:00:28;;;;;;;8.77;3.92;;;;;;;4.98;70.58;99063.34;4925080;28;104268;-63
2024/02/14 07:02:57;;;;;;;9.75;4.35;;;;;;;5.05;70.14;99058.44;4918940;28;103222;-63
2024/02/14 07:05:26;;;;;;;10.80;3.80;;;;;;;5.13;69.91;99049.94;4921981;28;103256;-64
2024/02/14 07:07:54;;;;;;;12.00;4.22;;;;;;;5.12;69.98;99057.00;4919738;28;102703;-64
2024/02/14 07:10:22;;;;;;;10.68;3.83;;;;;;;5.06;70.12;99060.09;4922897;28;102685;-63
2024/02/14 07:12:50;;;;;;;11.45;4.32;;;;;;;5.05;70.08;99058.44;4920804;28;103923;-63
2024/02/14 07:15:20;;;;;;;10.48;4.10;;;;;;;5.23;69.71;99066.59;4923813;28;103256;-63
2024/02/14 07:17:48;;;;;;;9.32;3.60;;;;;;;5.24;69.84;99065.66;4924252;28;102655;-63
2024/02/14 07:20:18;;;;;;;9.02;3.40;;;;;;;5.34;69.53;99072.78;4913995;28;103999;-63
2024/02/14 07:22:47;;;;;;;7.40;3.40;;;;;;;5.47;69.04;99074.25;4913900;28;104229;-63
2024/02/14 07:25:15;;;;;;;6.00;3.05;;;;;;;5.58;69.07;99077.78;4917195;28;103290;-63
2024/02/14 07:27:49;;;;;;;8.57;3.22;;;;;;;5.66;68.45;99078.03;4921434;28;103110;-63
2024/02/14 07:30:18;;;;;;;10.30;3.28;;;;;;;5.68;68.92;99075.25;4923051;28;102782;-63
2024/02/14 07:32:47;;;;;;;6.93;2.92;;;;;;;5.68;68.87;99076.09;4917755;28;103360;-63
2024/02/14 07:35:16;;;;;;;10.80;4.10;;;;;;;5.38;70.30;99077.66;4909921;28;103329;-65
2024/02/14 07:37:44;;;;;;;9.27;3.40;;;;;;;5.53;69.69;99085.22;4932839;28;102749;-66
2024/02/14 07:40:12;;;;;;;14.48;3.85;;;;;;;5.51;69.60;99087.16;4914826;28;102907;-65
2024/02/14 07:42:44;;;;;;;9.32;3.10;;;;;;;5.78;69.01;99079.63;4917520;28;103277;-66
2024/02/14 07:45:12;;;;;;;9.15;3.47;;;;;;;5.96;69.30;99081.66;4918570;28;103342;-64
2024/02/14 07:47:41;;;;;;;7.57;3.17;;;;;;;6.05;69.05;99082.72;4919668;28;102748;-65
2024/02/14 07:50:11;;;;;;;5.03;2.65;;;;;;;6.18;69.24;99087.78;4920715;28;103960;-66
2024/02/14 07:52:42;;;;;;;11.48;3.42;;;;;;;6.11;69.54;99093.53;4921911;28;103537;-65
2024/02/14 07:55:12;;;;;;;9.30;3.35;;;;;;;6.17;68.24;99086.09;4919921;28;103266;-66
2024/02/14 07:57:40;;;;;;;9.15;3.42;;;;;;;6.24;69.37;99082.81;4915506;28;102915;-66
2024/02/14 08:00:10;;;;;;;8.63;3.08;;;;;;;6.35;69.12;99087.16;4930391;28;102756;-65
2024/02/14 08:02:38;;;;;;;8.88;2.70;;;;;;;6.49;68.55;99090.41;4917309;28;103464;-65
2024/02/14 08:05:08;;;;;;;8.27;3.05;;;;;;;6.52;68.48;99092.78;4913128;28;103013;-65
2024/02/14 08:07:38;;;;;;;8.77;2.75;;;;;;;6.61;68.87;99102.50;4919049;28;102838;-65
2024/02/14 08:10:06;;;;;;;10.65;3.08;;;;;;;6.66;68.28;99095.03;4920387;28;103988;-65
2024/02/14 08:12:34;;;;;;;8.52;2.75;;;;;;;6.75;68.81;99098.69;4917648;28;103857;-65
2024/02/14 08:15:04;;;;;;;12.35;2.90;;;;;;;6.81;68.68;99106.03;4923563;28;103093;-65
2024/02/14 08:17:33;;;;;;;7.50;2.35;;;;;;;6.96;68.63;99109.97;4924301;28;102697;-65
2024/02/14 08:20:03;;;;;;;7.85;2.45;;;;;;;7.02;67.73;99105.97;4929668;28;103047;-65
2024/02/14 08:22:32;;;;;;;7.80;3.13;;;;;;;6.96;68.43;99107.31;4921248;28;103991;-65
2024/02/14 08:25:03;;;;;;;10.50;3.50;;;;;;;7.00;68.55;99105.25;4923223;28;103249;-65
2024/02/14 08:27:31;;;;;;;14.98;3.92;;;;;;;6.98;67.90;99107.19;4919933;28;105030;-65
2024/02/14 08:30:04;;;;;;;13.00;3.55;;;;;;;7.03;67.67;99104.97;4915262;28;103145;-65
2024/02/14 08:32:37;;;;;;;15.07;4.47;;;;;;;7.08;67.55;99108.03;4920708;28;103242;-65
2024/02/14 08:35:07;;;;;;;19.30;4.47;;;;;;;7.16;67.40;99110.00;4921940;28;103217;-65
2024/02/14 08:37:36;;;;;;;8.95;3.33;;;;;;;7.27;67.12;99106.41;4921287;28;102690;-65
2024/02/14 08:40:08;;;;;;;8.32;2.72;;;;;;;7.41;66.72;99113.09;4922333;28;103553;-64
2024/02/14 08:42:37;;;;;;;7.30;2.97;;;;;;;7.55;66.99;99115.31;4923366;28;103975;-65
2024/02/14 08:45:06;;;;;;;13.32;3.20;;;;;;;7.64;67.10;99113.66;4925690;28;103113;-64
2024/02/14 08:47:34;;;;;;;8.30;3.10;;;;;;;7.66;66.84;99109.06;4921219;28;102969;-65
2024/02/14 08:50:04;;;;;;;9.38;2.72;;;;;;;7.74;65.87;99109.22;4926471;28;102735;-65
2024/02/14 08:52:35;;;;;;;7.88;2.58;;;;;;;8.02;65.11;99101.41;4924115;28;103149;-65
2024/02/14 08:55:03;;;;;;;5.93;2.20;;;;;;;8.20;64.60;99113.84;4924375;28;103337;-65
2024/02/14 08:57:33;;;;;;;6.60;2.38;;;;;;;8.31;64.29;99108.41;4924410;28;103161;-65
2024/02/14 09:00:04;;;;;;;7.72;2.10;;;;;;;8.34;63.92;99113.41;4919000;28;103788;-65
2024/02/14 09:02:32;;;;;;;6.38;1.77;;;;;;;8.29;63.22;99115.63;4913537;28;103721;-61
2024/02/14 09:05:09;;;;;;;6.32;2.17;;;;;;;8.36;62.80;99102.69;4935429;28;103283;-64
2024/02/14 09:07:37;;;;;;;5.65;1.52;;;;;;;8.52;63.09;99102.94;4923927;28;102705;-64
2024/02/14 09:10:10;;;;;;;8.30;1.77;;;;;;;8.68;62.38;99107.59;4928880;28;105157;-63
2024/02/14 09:13:02;;;;;;;13.00;2.53;;;;;;;8.65;62.47;99101.78;4920217;28;103025;-63
2024/02/14 09:15:30;;;;;;;6.97;1.98;;;;;;;8.66;62.32;99114.84;4920239;28;103371;-63
2024/02/14 09:17:59;;;;;;;11.48;2.33;;;;;;;8.68;63.07;99112.88;4922966;28;104052;-63
2024/02/14 09:20:28;;;;;;;14.23;3.08;;;;;;;8.55;63.72;99123.78;4918565;28;102872;-63
2024/02/14 09:22:59;;;;;;;7.43;3.20;;;;;;;8.65;63.65;99121.09;4920886;28;106870;-63
2024/02/14 09:25:27;;;;;;;10.55;3.50;;;;;;;8.50;62.70;99119.91;4919607;28;103272;-64
2024/02/14 09:27:55;;;;;;;7.53;3.10;;;;;;;8.69;63.03;99122.47;4927769;28;102906;-63
2024/02/14 09:30:24;;;;;;;12.30;3.25;;;;;;;8.86;62.91;99125.34;4919751;28;104413;-63
2024/02/14 09:33:05;;;;;;;8.95;3.00;;;;;;;8.84;63.51;99111.44;4918943;28;104114;-63
2024/02/14 09:35:35;;;;;;;12.05;4.35;;;;;;;8.73;62.46;99104.53;4923766;23;103233;-64
2024/02/14 09:38:04;;;;;;;9.05;3.13;;;;;;;9.00;62.64;99103.72;4908385;28;103200;-64
2024/02/14 09:40:43;;;;;;;14.02;3.90;;;;;;;9.04;60.66;99102.44;4935073;28;104011;-63
2024/02/14 09:43:34;;;;;;;10.73;3.13;;;;;;;9.32;61.16;99101.56;4923678;28;104470;-64
2024/02/14 09:46:04;;;;;;;8.52;3.10;;;;;;;9.43;61.35;99096.88;4926070;28;103332;-64
2024/02/14 09:48:34;;;;;;;9.27;2.97;;;;;;;9.56;61.41;99095.66;4911808;28;102665;-64
2024/02/14 09:51:13;;;;;;;15.15;3.47;;;;;;;9.53;60.59;99098.63;4922359;28;105458;-64
2024/02/14 09:53:43;;;;;;;7.15;1.90;;;;;;;9.53;60.47;99102.06;4923467;28;104212;-64
2024/02/14 09:56:16;;;;;;;8.20;1.63;;;;;;;9.58;59.73;99109.56;4928997;28;103305;-64
2024/02/14 09:58:50;;;;;;;11.48;2.03;;;;;;;9.69;60.34;99101.38;4913974;28;102752;-64
2024/02/14 10:01:20;;;;;;;7.93;2.17;;;;;;;9.72;59.82;99101.09;4904001;28;103728;-64
2024/02/14 10:03:49;;;;;;;9.77;2.20;;;;;;;9.83;60.07;99109.78;4920639;28;103189;-64
2024/02/14 10:06:19;;;;;;;7.10;2.05;;;;;;;10.13;59.67;99104.03;4899499;28;103405;-64
2024/02/14 10:08:48;;;;;;;6.15;2.05;;;;;;;10.25;59.37;99109.06;4907082;28;102805;-64
2024/02/14 10:11:31;;;;;;;11.68;2.30;;;;;;;10.33;58.52;99098.53;4909952;28;102875;-64
2024/02/14 10:14:02;;;;;;;9.95;2.70;;;;;;;10.61;58.25;99085.97;4929518;28;103281;-66
2024/02/14 10:16:34;;;;;;;11.70;3.03;;;;;;;10.70;58.15;99088.66;4925296;28;103246;-64
2024/02/14 10:19:03;;;;;;;7.15;2.92;;;;;;;10.96;58.10;99096.53;4926581;28;102953;-65
2024/02/14 10:21:33;;;;;;;4.55;1.50;;;;;;;11.13;57.15;99099.22;4924299;28;103020;-66
2024/02/14 10:24:03;;;;;;;3.85;1.80;;;;;;;11.42;57.26;99096.13;4922510;28;103298;-66
2024/02/14 10:26:31;;;;;;;4.43;1.27;;;;;;;11.60;56.19;99091.50;4902728;28;103316;-66
2024/02/14 10:29:00;;;;;;;3.72;1.35;;;;;;;11.59;57.02;99089.88;4907152;28;102911;-66
2024/02/14 10:31:28;;;;;;;6.50;2.05;;;;;;;11.84;56.18;99086.38;4922829;28;104472;-66
2024/02/14 10:33:59;;;;;;;6.28;1.88;;;;;;;12.05;56.45;99084.06;4923750;28;104147;-66
2024/02/14 10:36:27;;;;;;;4.65;1.75;;;;;;;12.35;55.59;99081.66;4926778;28;104444;-66
2024/02/14 10:38:58;;;;;;;4.68;2.10;;;;;;;12.46;54.41;99080.50;4932055;28;102771;-66
2024/02/14 10:41:36;;;;;;;3.35;1.50;;;;;;;12.30;54.83;99086.69;4933968;28;102757;-65
2024/02/14 10:44:06;;;;;;;3.42;1.25;;;;;;;12.52;55.28;99085.09;4908321;28;103194;-65
2024/02/14 10:46:38;;;;;;;3.95;1.27;;;;;;;12.58;55.49;99089.75;4903205;28;103501;-65
2024/02/14 10:49:11;;;;;;;3.67;1.02;;;;;;;12.54;55.72;99079.63;4913866;28;103196;-64
2024/02/14 10:51:41;;;;;;;3.33;1.50;;;;;;;12.72;55.57;99080.22;4917595;28;103939;-66
2024/02/14 10:54:12;;;;;;;3.05;1.10;;;;;;;12.74;55.28;99083.53;4909187;28;103043;-64
2024/02/14 10:56:43;;;;;;;5.65;1.15;;;;;;;12.67;56.40;99087.88;4898382;28;103871;-66
2024/02/14 10:59:14;;;;;;;3.20;1.08;;;;;;;12.63;56.90;99080.41;4913563;28;102694;-65
2024/02/14 11:01:43;;;;;;;5.60;1.02;;;;;;;12.43;57.08;99080.81;4909276;28;104024;-66
2024/02/14 11:04:13;;;;;;;4.07;1.00;;;;;;;12.68;56.27;99078.91;4893816;28;103417;-66
2024/02/14 11:06:48;;;;;;;3.58;1.10;;;;;;;12.46;57.13;99096.44;4902325;28;103695;-66
2024/02/14 11:09:16;;;;;;;;;;;;;;;12.62;56.59;99098.19;4904735;28;102783;-66
2024/02/14 11:11:45;;;;;;;3.35;0.90;;;;;;;12.58;57.03;99094.22;4911421;28;103543;-66
2024/02/14 11:14:16;;;;;;;2.53;0.90;;;;;;;12.58;57.49;99099.56;4917821;28;103252;-66
2024/02/14 11:16:53;;;;;;;1.65;0.77;;;;;;;12.43;57.84;99097.59;4908336;28;103017;-66
2024/02/14 11:19:33;;;;;;;2.72;0.90;;;;;;;12.46;57.37;99092.94;4898523;28;103194;-66
2024/02/14 11:22:13;;;;;;;2.88;1.10;;;;;;;12.28;58.05;99089.47;4903073;28;104154;-65
2024/02/14 11:24:41;;;;;;;5.13;1.10;;;;;;;12.27;58.50;99087.00;4917301;28;103998;-65
2024/02/14 11:27:12;;;;;;;5.82;1.20;;;;;;;11.94;59.33;99098.47;4913516;28;103611;-65
2024/02/14 11:30:03;;;;;;;5.20;0.95;;;;;;;11.99;59.31;99095.34;4912153;28;102738;-65
2024/02/14 11:36:45;;;;;;;5.43;0.95;;;;;;;12.04;60.05;99095.69;4905689;28;103270;-66
2024/02/14 11:39:14;;;;;;;2.28;1.05;;;;;;;11.88;60.81;99090.34;4903465;28;103842;-66
2024/02/14 11:41:42;;;;;;;1.40;0.70;;;;;;;11.72;61.31;99094.66;4885360;28;102958;-66
2024/02/14 11:44:11;;;;;;;1.25;0.80;;;;;;;11.86;61.25;99100.31;4894839;28;104423;-66